Buda, Texas
Current Conditions -  °F | °C
As of 9:53 AM on Friday 28 Nov 2014 (Local Time) from KAUS Reporting Station
Broken Clouds Broken Clouds  
Wind Chill: 57°   Ceiling: 1800
Heat Index: 57°   Visibility: 10mi
Dew Point: 49°   Wind: 13mph
Humidity: 74%   Direction: 200°SSW
Pressure: 30.31"   Gusts: NA
Location:  30.09°N, 97.84°W
Report Text: KAUS 281553Z 20011KT 10SM BKN018 BKN036 14/09 A3031 RMK AO2 SLP264 T01390094
Loading
Personal Weather Stations






























Interactive Weather Map New forecast layout! Learn more

10-Day Weather Forecast

Advertisements
Track Severe Weather on mobile